Wetterdaten: aktuell Samstag, 04.04.2020 12:50
Datum Zeit Temp. A. Feuchte A. Luftdruck Regen Wind Richtung Richtung Taupunkt Windchill Windben Empfang
04.04.2020 12:50 12,6 C 50 % 1025,0 hPa 0,0 l/m 9,8 km/h (2 Bft) S-SW 198 2,5 C 12,6 C 19,6 km/h (3 Bft) 99 %
04.04.2020 12:40 12,4 C 51 % 1025,0 hPa 0,0 l/m 9,5 km/h (2 Bft) S-SW 196 2,6 C 12,4 C 21,6 km/h (4 Bft) 99 %
04.04.2020 12:30 12,1 C 52 % 1025,0 hPa 0,0 l/m 11,2 km/h (2 Bft) SW 215 2,5 C 12,1 C 19,6 km/h (3 Bft) 100 %
04.04.2020 12:20 12,0 C 53 % 1025,1 hPa 0,0 l/m 11,4 km/h (2 Bft) NW 313 2,7 C 12,0 C 21,6 km/h (4 Bft) 99 %
04.04.2020 12:10 11,6 C 54 % 1025,1 hPa 0,0 l/m 13,2 km/h (3 Bft) W 281 2,6 C 11,6 C 25,5 km/h (4 Bft) 99 %
04.04.2020 12:00 11,4 C 55 % 1025,1 hPa 0,0 l/m 12,7 km/h (3 Bft) S-SW 200 2,7 C 11,4 C 23,5 km/h (4 Bft) 98 %
04.04.2020 11:50 11,4 C 55 % 1025,0 hPa 0,0 l/m 9,0 km/h (2 Bft) S-SW 204 2,7 C 11,4 C 21,6 km/h (4 Bft) 99 %
04.04.2020 11:40 10,9 C 57 % 1025,0 hPa 0,0 l/m 12,3 km/h (3 Bft) SW 215 2,7 C 10,9 C 23,5 km/h (4 Bft) 99 %
04.04.2020 11:30 10,8 C 58 % 1024,9 hPa 0,0 l/m 11,1 km/h (2 Bft) SW 218 2,9 C 10,8 C 21,6 km/h (4 Bft) 99 %
04.04.2020 11:20 10,4 C 61 % 1024,9 hPa 0,0 l/m 9,8 km/h (2 Bft) S-SW 211 3,2 C 10,4 C 23,5 km/h (4 Bft) 99 %
04.04.2020 11:10 9,8 C 61 % 1025,0 hPa 0,0 l/m 13,9 km/h (3 Bft) W-SW 238 2,6 C 7,8 C 21,6 km/h (4 Bft) 99 %
04.04.2020 11:00 9,7 C 62 % 1024,9 hPa 0,0 l/m 11,3 km/h (2 Bft) SW 214 2,8 C 8,1 C 21,6 km/h (4 Bft) 100 %
04.04.2020 10:50 9,4 C 64 % 1024,9 hPa 0,0 l/m 10,1 km/h (2 Bft) SW 215 2,9 C 7,9 C 19,6 km/h (3 Bft) 100 %
04.04.2020 10:40 9,2 C 64 % 1024,8 hPa 0,0 l/m 10,3 km/h (2 Bft) S-SW 206 2,8 C 7,6 C 17,6 km/h (3 Bft) 100 %
04.04.2020 10:30 8,8 C 65 % 1024,8 hPa 0,0 l/m 13,2 km/h (3 Bft) SW 221 2,6 C 6,7 C 23,5 km/h (4 Bft) 99 %
04.04.2020 10:20 8,4 C 68 % 1024,6 hPa 0,0 l/m 10,7 km/h (2 Bft) S 189 2,8 C 6,6 C 21,6 km/h (4 Bft) 100 %
04.04.2020 10:10 8,0 C 69 % 1024,5 hPa 0,0 l/m 8,5 km/h (2 Bft) SW 230 2,7 C 6,5 C 17,6 km/h (3 Bft) 99 %
04.04.2020 10:00 7,3 C 72 % 1024,4 hPa 0,0 l/m 10,9 km/h (2 Bft) S-SW 200 2,6 C 5,2 C 19,6 km/h (3 Bft) 100 %
04.04.2020 09:50 6,8 C 74 % 1024,4 hPa 0,0 l/m 11,4 km/h (2 Bft) SW 221 2,5 C 4,5 C 19,6 km/h (3 Bft) 99 %
04.04.2020 09:40 6,3 C 76 % 1024,3 hPa 0,0 l/m 9,5 km/h (2 Bft) SW 231 2,4 C 4,3 C 15,7 km/h (3 Bft) 98 %
04.04.2020 09:30 5,7 C 78 % 1024,3 hPa 0,0 l/m 10,3 km/h (2 Bft) SW 234 2,2 C 3,4 C 17,6 km/h (3 Bft) 99 %
04.04.2020 09:20 5,1 C 81 % 1024,2 hPa 0,0 l/m 6,6 km/h (2 Bft) SW 217 2,1 C 3,6 C 11,8 km/h (2 Bft) 100 %
04.04.2020 09:10 4,8 C 81 % 1024,1 hPa 0,0 l/m 7,8 km/h (2 Bft) S-SW 200 1,8 C 3,0 C 11,8 km/h (2 Bft) 99 %
04.04.2020 09:00 4,5 C 81 % 1024,0 hPa 0,0 l/m 7,7 km/h (2 Bft) S-SW 213 1,5 C 2,6 C 13,7 km/h (3 Bft) 99 %
04.04.2020 08:50 4,4 C 81 % 1023,8 hPa 0,0 l/m 7,7 km/h (2 Bft) S-SW 205 1,4 C 2,5 C 13,7 km/h (3 Bft) 98 %
04.04.2020 08:40 4,3 C 82 % 1023,7 hPa 0,0 l/m 5,2 km/h (1 Bft) S-SW 196 1,5 C 3,2 C 9,8 km/h (2 Bft) 99 %
04.04.2020 08:30 4,3 C 82 % 1023,6 hPa 0,0 l/m 7,1 km/h (2 Bft) S-SW 205 1,5 C 2,6 C 11,8 km/h (2 Bft) 99 %
04.04.2020 08:20 4,3 C 82 % 1023,5 hPa 0,0 l/m 7,0 km/h (2 Bft) SW 221 1,5 C 2,6 C 11,8 km/h (2 Bft) 98 %
04.04.2020 08:10 4,3 C 82 % 1023,3 hPa 0,0 l/m 7,3 km/h (2 Bft) S 189 1,5 C 2,5 C 11,8 km/h (2 Bft) 100 %
04.04.2020 08:00 4,2 C 82 % 1023,1 hPa 0,0 l/m 6,7 km/h (2 Bft) SW 215 1,4 C 2,6 C 11,8 km/h (2 Bft) 99 %
04.04.2020 07:50 4,2 C 83 % 1023,1 hPa 0,0 l/m 6,4 km/h (2 Bft) SW 227 1,6 C 2,7 C 13,7 km/h (3 Bft) 99 %
04.04.2020 07:40 4,1 C 83 % 1022,8 hPa 0,0 l/m 5,8 km/h (2 Bft) S-SW 209 1,5 C 2,8 C 11,8 km/h (2 Bft) 99 %
04.04.2020 07:30 4,0 C 83 % 1022,7 hPa 0,0 l/m 5,7 km/h (1 Bft) S-SW 192 1,4 C 2,7 C 9,8 km/h (2 Bft) 98 %
04.04.2020 07:20 3,9 C 83 % 1022,7 hPa 0,0 l/m 3,9 km/h (1 Bft) S-SW 200 1,3 C 3,9 C 5,9 km/h (2 Bft) 100 %
04.04.2020 07:10 3,9 C 83 % 1022,6 hPa 0,0 l/m 5,5 km/h (1 Bft) S-SW 200 1,3 C 2,6 C 9,8 km/h (2 Bft) 100 %
04.04.2020 07:00 3,8 C 83 % 1022,4 hPa 0,0 l/m 6,8 km/h (2 Bft) S-SW 203 1,2 C 2,1 C 11,8 km/h (2 Bft) 100 %
04.04.2020 06:50 3,8 C 84 % 1022,2 hPa 0,0 l/m 5,9 km/h (2 Bft) S-SW 207 1,4 C 2,4 C 11,8 km/h (2 Bft) 98 %
04.04.2020 06:40 3,7 C 84 % 1022,2 hPa 0,0 l/m 6,6 km/h (2 Bft) S-SW 201 1,3 C 2,0 C 11,8 km/h (2 Bft) 99 %
04.04.2020 06:30 3,5 C 85 % 1022,1 hPa 0,0 l/m 5,8 km/h (2 Bft) S-SW 200 1,2 C 2,1 C 11,8 km/h (2 Bft) 98 %
04.04.2020 06:20 3,4 C 85 % 1022,1 hPa 0,0 l/m 6,0 km/h (2 Bft) SW 214 1,1 C 1,9 C 11,8 km/h (2 Bft) 100 %
04.04.2020 06:10 3,3 C 86 % 1022,1 hPa 0,0 l/m 5,0 km/h (1 Bft) S-SW 208 1,2 C 2,2 C 9,8 km/h (2 Bft) 99 %
04.04.2020 06:00 3,2 C 86 % 1022,1 hPa 0,0 l/m 4,3 km/h (1 Bft) S-SW 203 1,1 C 3,2 C 7,8 km/h (2 Bft) 99 %
04.04.2020 05:50 3,1 C 86 % 1022,1 hPa 0,0 l/m 4,5 km/h (1 Bft) S-SW 202 1,0 C 3,1 C 7,8 km/h (2 Bft) 100 %
04.04.2020 05:40 3,0 C 86 % 1022,1 hPa 0,0 l/m 4,8 km/h (1 Bft) S-SW 213 0,9 C 1,9 C 9,8 km/h (2 Bft) 99 %
04.04.2020 05:30 2,9 C 86 % 1022,1 hPa 0,0 l/m 4,8 km/h (1 Bft) S-SW 200 0,8 C 1,8 C 7,8 km/h (2 Bft) 100 %
04.04.2020 05:20 2,9 C 86 % 1022,0 hPa 0,0 l/m 6,0 km/h (2 Bft) SW 216 0,8 C 1,3 C 9,8 km/h (2 Bft) 100 %
04.04.2020 05:10 2,8 C 86 % 1022,0 hPa 0,0 l/m 5,6 km/h (1 Bft) SW 228 0,7 C 1,3 C 9,8 km/h (2 Bft) 100 %
04.04.2020 05:00 2,8 C 86 % 1022,0 hPa 0,0 l/m 4,2 km/h (1 Bft) S-SW 211 0,7 C 2,8 C 7,8 km/h (2 Bft) 100 %
04.04.2020 04:50 2,7 C 86 % 1022,1 hPa 0,0 l/m 4,4 km/h (1 Bft) S 190 0,6 C 2,7 C 7,8 km/h (2 Bft) 100 %
04.04.2020 04:40 2,7 C 87 % 1022,0 hPa 0,0 l/m 5,0 km/h (1 Bft) S-SW 194 0,8 C 1,5 C 7,8 km/h (2 Bft) 99 %
04.04.2020 04:30 2,6 C 87 % 1021,9 hPa 0,0 l/m 4,7 km/h (1 Bft) S-SW 213 0,7 C 1,5 C 9,8 km/h (2 Bft) 99 %
04.04.2020 04:20 2,4 C 87 % 1021,9 hPa 0,0 l/m 4,8 km/h (1 Bft) S-SW 208 0,5 C 1,2 C 9,8 km/h (2 Bft) 99 %
04.04.2020 04:10 2,2 C 88 % 1021,8 hPa 0,0 l/m 5,0 km/h (1 Bft) SW 214 0,4 C 0,9 C 9,8 km/h (2 Bft) 100 %
04.04.2020 04:00 2,0 C 88 % 1021,8 hPa 0,0 l/m 5,2 km/h (1 Bft) S-SW 212 0,2 C 0,6 C 9,8 km/h (2 Bft) 99 %
04.04.2020 03:50 1,8 C 88 % 1021,7 hPa 0,0 l/m 4,1 km/h (1 Bft) SW 217 0,0 C 1,8 C 9,8 km/h (2 Bft) 100 %
04.04.2020 03:40 1,8 C 88 % 1021,6 hPa 0,0 l/m 4,3 km/h (1 Bft) S-SW 207 0,0 C 1,8 C 7,8 km/h (2 Bft) 99 %
04.04.2020 03:30 1,7 C 88 % 1021,5 hPa 0,0 l/m 4,4 km/h (1 Bft) S-SW 213 -0,1 C 1,7 C 9,8 km/h (2 Bft) 99 %
04.04.2020 03:24 1,7 C 88 % 1021,6 hPa 0,0 l/m 3,7 km/h (1 Bft) SW 215 -0,1 C 1,7 C 5,9 km/h (2 Bft) 100 %
04.04.2020 03:23 1,7 C 88 % 1021,6 hPa 0,0 l/m 4,1 km/h (1 Bft) SW 215 -0,1 C 1,7 C 7,8 km/h (2 Bft) 100 %
04.04.2020 03:10 1,8 C 88 % 1021,6 hPa 0,0 l/m 4,1 km/h (1 Bft) S-SW 207 0,0 C 1,8 C 7,8 km/h (2 Bft) 98 %
04.04.2020 03:00 1,7 C 88 % 1021,6 hPa 0,0 l/m 3,9 km/h (1 Bft) SW 221 -0,1 C 1,7 C 7,8 km/h (2 Bft) 100 %
04.04.2020 02:50 1,7 C 88 % 1021,5 hPa 0,0 l/m 3,4 km/h (1 Bft) S-SW 213 -0,1 C 1,7 C 7,8 km/h (2 Bft) 100 %
04.04.2020 02:40 1,8 C 88 % 1021,4 hPa 0,0 l/m 3,1 km/h (1 Bft) S-SW 213 0,0 C 1,8 C 5,9 km/h (2 Bft) 100 %
04.04.2020 02:30 1,8 C 88 % 1021,3 hPa 0,0 l/m 2,7 km/h (1 Bft) S-SW 213 0,0 C 1,8 C 5,9 km/h (2 Bft) 100 %
04.04.2020 02:20 1,9 C 87 % 1021,3 hPa 0,0 l/m 2,6 km/h (1 Bft) S-SW 213 -0,0 C 1,9 C 3,9 km/h (1 Bft) 100 %
04.04.2020 02:10 2,1 C 88 % 1021,2 hPa 0,0 l/m 2,8 km/h (1 Bft) S-SW 213 0,3 C 2,1 C 5,9 km/h (2 Bft) 99 %
04.04.2020 02:00 2,1 C 87 % 1021,1 hPa 0,0 l/m 2,9 km/h (1 Bft) S-SW 213 0,2 C 2,1 C 5,9 km/h (2 Bft) 99 %
04.04.2020 01:50 2,2 C 87 % 1021,0 hPa 0,0 l/m 2,8 km/h (1 Bft) S-SW 213 0,3 C 2,2 C 5,9 km/h (2 Bft) 100 %
04.04.2020 01:40 2,2 C 87 % 1020,9 hPa 0,0 l/m 2,8 km/h (1 Bft) S-SW 213 0,3 C 2,2 C 3,9 km/h (1 Bft) 98 %
04.04.2020 01:30 2,2 C 87 % 1020,9 hPa 0,0 l/m 3,9 km/h (1 Bft) S-SW 213 0,3 C 2,2 C 5,9 km/h (2 Bft) 99 %
04.04.2020 01:20 2,0 C 87 % 1020,8 hPa 0,0 l/m 3,4 km/h (1 Bft) S-SW 209 0,1 C 2,0 C 5,9 km/h (2 Bft) 99 %
04.04.2020 01:10 1,8 C 85 % 1020,6 hPa 0,0 l/m 0,0 km/h (0 Bft) W 278 -0,4 C 1,8 C 0,0 km/h (0 Bft) 99 %
04.04.2020 01:00 2,1 C 84 % 1020,5 hPa 0,0 l/m 0,0 km/h (0 Bft) W 278 -0,3 C 2,1 C 0,0 km/h (0 Bft) 99 %
04.04.2020 00:50 2,3 C 83 % 1020,5 hPa 0,0 l/m 0,0 km/h (0 Bft) N 0 -0,3 C 2,3 C 0,0 km/h (0 Bft) 100 %
04.04.2020 00:40 2,6 C 83 % 1020,5 hPa 0,0 l/m 0,0 km/h (0 Bft) N 0 0,0 C 2,6 C 0,0 km/h (0 Bft) 100 %
04.04.2020 00:30 2,8 C 82 % 1020,4 hPa 0,0 l/m 0,0 km/h (0 Bft) W 278 0,0 C 2,8 C 0,0 km/h (0 Bft) 98 %
04.04.2020 00:20 3,0 C 82 % 1020,3 hPa 0,0 l/m 0,0 km/h (0 Bft) W 278 0,2 C 3,0 C 0,0 km/h (0 Bft) 100 %
04.04.2020 00:10 3,2 C 80 % 1020,3 hPa 0,0 l/m 0,0 km/h (0 Bft) W 278 0,1 C 3,2 C 0,0 km/h (0 Bft) 100 %
04.04.2020 00:00 3,6 C 78 % 1020,2 hPa 0,0 l/m 0,0 km/h (0 Bft) W 278 0,1 C 3,6 C 0,0 km/h (0 Bft) 98 %
03.04.2020 23:50 4,0 C 77 % 1020,1 hPa 0,0 l/m 0,0 km/h (0 Bft) W 278 0,3 C 4,0 C 0,0 km/h (0 Bft) 99 %
03.04.2020 23:49 4,0 C 77 % 1020,1 hPa 0,0 l/m 0,0 km/h (0 Bft) W 278 0,3 C 4,0 C 0,0 km/h (0 Bft) 100 %
03.04.2020 23:48 4,1 C 77 % 1020,1 hPa 0,0 l/m 0,0 km/h (0 Bft) W 278 0,4 C 4,1 C 0,0 km/h (0 Bft) 100 %
03.04.2020 23:47 4,2 C 76 % 1020,1 hPa 0,0 l/m 0,0 km/h (0 Bft) W 278 0,4 C 4,2 C 2,0 km/h (1 Bft) 99 %
03.04.2020 23:20 5,2 C 74 % 1019,9 hPa 0,0 l/m 0,0 km/h (0 Bft) W 278 1,0 C 5,2 C 0,0 km/h (0 Bft) 99 %
03.04.2020 23:19 5,2 C 74 % 1019,9 hPa 0,0 l/m 0,0 km/h (0 Bft) W 278 1,0 C 5,2 C 0,0 km/h (0 Bft) 100 %
03.04.2020 23:18 5,2 C 74 % 1019,9 hPa 0,0 l/m 0,0 km/h (0 Bft) W 278 1,0 C 5,2 C 0,0 km/h (0 Bft) 100 %
03.04.2020 23:17 5,2 C 74 % 1019,9 hPa 0,0 l/m 1,5 km/h (1 Bft) W 278 1,0 C 5,2 C 5,9 km/h (2 Bft) 100 %
03.04.2020 22:50 6,1 C 72 % 1019,7 hPa 0,0 l/m 2,3 km/h (1 Bft) W-NW 300 1,4 C 6,1 C 7,8 km/h (2 Bft) 99 %
03.04.2020 22:40 6,3 C 72 % 1019,7 hPa 0,0 l/m 3,2 km/h (1 Bft) N-NW 342 1,6 C 6,3 C 7,8 km/h (2 Bft) 99 %
03.04.2020 22:30 6,4 C 73 % 1019,6 hPa 0,0 l/m 1,4 km/h (1 Bft) W-NW 301 1,9 C 6,4 C 5,9 km/h (2 Bft) 100 %
03.04.2020 22:20 6,4 C 72 % 1019,5 hPa 0,0 l/m 3,9 km/h (1 Bft) W-NW 301 1,7 C 6,4 C 5,9 km/h (2 Bft) 100 %
03.04.2020 22:10 6,5 C 72 % 1019,5 hPa 0,0 l/m 1,6 km/h (1 Bft) W-NW 291 1,8 C 6,5 C 11,8 km/h (2 Bft) 99 %
03.04.2020 22:00 6,6 C 72 % 1019,4 hPa 0,0 l/m 2,2 km/h (1 Bft) NW 315 1,9 C 6,6 C 5,9 km/h (2 Bft) 100 %
03.04.2020 21:50 6,7 C 71 % 1019,3 hPa 0,0 l/m 1,6 km/h (1 Bft) NW 315 1,8 C 6,7 C 5,9 km/h (2 Bft) 100 %
03.04.2020 21:40 6,8 C 68 % 1019,2 hPa 0,0 l/m 1,0 km/h (0 Bft) N-NW 327 1,3 C 6,8 C 5,9 km/h (2 Bft) 99 %
03.04.2020 21:30 6,9 C 68 % 1019,1 hPa 0,0 l/m 0,9 km/h (0 Bft) NW 321 1,4 C 6,9 C 3,9 km/h (1 Bft) 100 %
03.04.2020 21:20 7,0 C 67 % 1019,0 hPa 0,0 l/m 1,7 km/h (1 Bft) NW 320 1,3 C 7,0 C 5,9 km/h (2 Bft) 99 %
03.04.2020 21:10 7,2 C 67 % 1018,9 hPa 0,0 l/m 2,5 km/h (1 Bft) N-NW 336 1,5 C 7,2 C 9,8 km/h (2 Bft) 99 %
03.04.2020 21:00 7,3 C 67 % 1018,7 hPa 0,0 l/m 1,6 km/h (1 Bft) N-NO 19 1,6 C 7,3 C 5,9 km/h (2 Bft) 100 %
03.04.2020 20:50 7,4 C 67 % 1018,6 hPa 0,0 l/m 2,8 km/h (1 Bft) NW 305 1,7 C 7,4 C 7,8 km/h (2 Bft) 99 %
03.04.2020 20:40 7,4 C 67 % 1018,4 hPa 0,0 l/m 3,8 km/h (1 Bft) NW 323 1,7 C 7,4 C 15,7 km/h (3 Bft) 98 %
03.04.2020 20:30 7,5 C 69 % 1018,2 hPa 0,0 l/m 2,1 km/h (1 Bft) W 267 2,2 C 7,5 C 7,8 km/h (2 Bft) 99 %
03.04.2020 20:20 7,6 C 68 % 1018,1 hPa 0,0 l/m 2,2 km/h (1 Bft) W-SW 257 2,1 C 7,6 C 5,9 km/h (2 Bft) 100 %
03.04.2020 20:10 7,6 C 68 % 1018,0 hPa 0,0 l/m 1,7 km/h (1 Bft) W-NW 292 2,1 C 7,6 C 7,8 km/h (2 Bft) 100 %
03.04.2020 20:00 7,7 C 67 % 1017,9 hPa 0,0 l/m 0,6 km/h (0 Bft) NW 325 2,0 C 7,7 C 3,9 km/h (1 Bft) 98 %
03.04.2020 19:50 7,8 C 66 % 1017,7 hPa 0,0 l/m 3,4 km/h (1 Bft) NW 324 1,9 C 7,8 C 7,8 km/h (2 Bft) 99 %
03.04.2020 19:40 7,8 C 66 % 1017,7 hPa 0,0 l/m 2,9 km/h (1 Bft) NW 315 1,9 C 7,8 C 7,8 km/h (2 Bft) 98 %
03.04.2020 19:30 7,9 C 65 % 1017,6 hPa 0,0 l/m 4,7 km/h (1 Bft) N-NO 25 1,7 C 7,5 C 11,8 km/h (2 Bft) 99 %
03.04.2020 19:20 8,0 C 65 % 1017,4 hPa 0,0 l/m 3,5 km/h (1 Bft) NW 315 1,8 C 8,0 C 9,8 km/h (2 Bft) 99 %
03.04.2020 19:10 8,1 C 64 % 1017,4 hPa 0,0 l/m 5,8 km/h (2 Bft) N 350 1,7 C 7,3 C 15,7 km/h (3 Bft) 100 %
03.04.2020 19:00 8,2 C 64 % 1017,3 hPa 0,0 l/m 5,5 km/h (1 Bft) W-NW 303 1,8 C 7,6 C 15,7 km/h (3 Bft) 99 %
03.04.2020 18:50 8,3 C 64 % 1017,1 hPa 0,0 l/m 5,5 km/h (1 Bft) O-NO 71 1,9 C 7,7 C 15,7 km/h (3 Bft) 99 %
03.04.2020 18:40 8,4 C 64 % 1017,0 hPa 0,0 l/m 5,3 km/h (1 Bft) NW 311 2,0 C 7,8 C 17,6 km/h (3 Bft) 100 %
03.04.2020 18:30 8,5 C 63 % 1016,9 hPa 0,0 l/m 7,2 km/h (2 Bft) W-NW 287 1,9 C 7,4 C 19,6 km/h (3 Bft) 99 %
03.04.2020 18:20 8,6 C 62 % 1016,8 hPa 0,0 l/m 6,1 km/h (2 Bft) W-NW 285 1,7 C 7,8 C 17,6 km/h (3 Bft) 99 %
03.04.2020 18:10 8,7 C 63 % 1016,8 hPa 0,0 l/m 7,6 km/h (2 Bft) NW 311 2,1 C 7,6 C 17,6 km/h (3 Bft) 100 %
03.04.2020 18:00 8,7 C 64 % 1016,6 hPa 0,0 l/m 7,6 km/h (2 Bft) NW 319 2,3 C 7,6 C 17,6 km/h (3 Bft) 100 %
03.04.2020 17:55 8,8 C 63 % 1016,6 hPa 0,0 l/m 11,7 km/h (2 Bft) NW 305 2,2 C 6,9 C 17,6 km/h (3 Bft) 96 %
03.04.2020 17:54 8,8 C 63 % 1016,6 hPa 0,0 l/m 7,3 km/h (2 Bft) NW 304 2,2 C 7,8 C 19,6 km/h (3 Bft) 99 %
03.04.2020 17:40 9,0 C 58 % 1016,4 hPa 0,0 l/m 6,5 km/h (2 Bft) NW 308 1,2 C 8,2 C 19,6 km/h (3 Bft) 99 %
03.04.2020 17:30 9,1 C 56 % 1016,4 hPa 0,0 l/m 5,7 km/h (1 Bft) NW 309 0,8 C 8,5 C 15,7 km/h (3 Bft) 99 %
03.04.2020 17:20 9,2 C 57 % 1016,3 hPa 0,0 l/m 5,5 km/h (1 Bft) W 277 1,1 C 8,7 C 19,6 km/h (3 Bft) 99 %
03.04.2020 17:10 9,3 C 57 % 1016,1 hPa 0,0 l/m 8,0 km/h (2 Bft) SW 227 1,2 C 8,2 C 27,4 km/h (4 Bft) 99 %
03.04.2020 17:00 9,5 C 56 % 1016,1 hPa 0,0 l/m 7,2 km/h (2 Bft) NW 319 1,2 C 8,6 C 21,6 km/h (4 Bft) 100 %
03.04.2020 16:50 9,7 C 56 % 1016,0 hPa 0,0 l/m 6,6 km/h (2 Bft) W-NW 301 1,4 C 9,0 C 19,6 km/h (3 Bft) 100 %
03.04.2020 16:40 9,9 C 54 % 1015,8 hPa 0,0 l/m 9,3 km/h (2 Bft) NW 308 1,0 C 8,6 C 23,5 km/h (4 Bft) 99 %
03.04.2020 16:31 10,2 C 58 % 1015,8 hPa 0,0 l/m 5,1 km/h (1 Bft) N 5 2,3 C 10,2 C 15,7 km/h (3 Bft) 99 %
03.04.2020 16:20 10,5 C 52 % 1015,7 hPa 0,0 l/m 7,7 km/h (2 Bft) N-NO 27 1,1 C 10,5 C 19,6 km/h (3 Bft) 98 %
03.04.2020 16:10 10,6 C 48 % 1015,5 hPa 0,0 l/m 6,3 km/h (2 Bft) NW 308 0,1 C 10,6 C 19,6 km/h (3 Bft) 100 %
03.04.2020 16:00 10,7 C 47 % 1015,4 hPa 0,0 l/m 8,8 km/h (2 Bft) W-SW 242 -0,1 C 10,7 C 19,6 km/h (3 Bft) 100 %
03.04.2020 15:50 11,0 C 45 % 1015,3 hPa 0,0 l/m 6,8 km/h (2 Bft) SW 229 -0,5 C 11,0 C 17,6 km/h (3 Bft) 99 %
03.04.2020 15:40 11,0 C 48 % 1015,2 hPa 0,0 l/m 9,5 km/h (2 Bft) S-SW 202 0,4 C 11,0 C 30,7 km/h (5 Bft) 100 %
03.04.2020 15:30 10,3 C 51 % 1015,3 hPa 0,0 l/m 11,8 km/h (2 Bft) SW 225 0,6 C 10,3 C 23,6 km/h (4 Bft) 100 %
03.04.2020 15:20 10,2 C 52 % 1015,4 hPa 0,0 l/m 9,5 km/h (2 Bft) W-NW 292 0,8 C 10,2 C 26,0 km/h (4 Bft) 100 %
03.04.2020 15:10 9,9 C 55 % 1015,4 hPa 0,0 l/m 9,5 km/h (2 Bft) W-SW 247 1,3 C 8,6 C 23,6 km/h (4 Bft) 100 %
03.04.2020 15:00 9,7 C 53 % 1015,3 hPa 0,0 l/m 9,5 km/h (2 Bft) W 270 0,6 C 8,4 C 23,6 km/h (4 Bft) 100 %
03.04.2020 14:50 9,7 C 54 % 1015,3 hPa 0,0 l/m 7,1 km/h (2 Bft) SW 225 0,9 C 8,9 C 21,3 km/h (4 Bft) 100 %
03.04.2020 14:40 9,9 C 57 % 1015,3 hPa 0,0 l/m 7,1 km/h (2 Bft) NW 315 1,8 C 9,1 C 18,9 km/h (3 Bft) 100 %
03.04.2020 14:30 10,1 C 56 % 1015,2 hPa 0,0 l/m 7,1 km/h (2 Bft) O 90 1,7 C 10,1 C 16,5 km/h (3 Bft) 100 %
03.04.2020 14:20 10,0 C 58 % 1015,1 hPa 0,0 l/m 7,1 km/h (2 Bft) W-NW 292 2,1 C 9,2 C 21,3 km/h (4 Bft) 100 %
03.04.2020 14:10 10,0 C 56 % 1015,2 hPa 0,0 l/m 4,7 km/h (1 Bft) W 270 1,6 C 9,8 C 16,5 km/h (3 Bft) 100 %
03.04.2020 14:00 10,2 C 59 % 1015,2 hPa 0,0 l/m 4,7 km/h (1 Bft) NW 315 2,6 C 10,2 C 23,6 km/h (4 Bft) 100 %
03.04.2020 13:50 10,0 C 57 % 1015,2 hPa 0,0 l/m 4,7 km/h (1 Bft) W-NW 292 1,9 C 9,8 C 16,5 km/h (3 Bft) 100 %
03.04.2020 13:40 9,7 C 57 % 1015,1 hPa 0,0 l/m 7,1 km/h (2 Bft) W-NW 292 1,6 C 8,9 C 18,9 km/h (3 Bft) 100 %
03.04.2020 13:30 9,7 C 57 % 1015,1 hPa 0,0 l/m 7,1 km/h (2 Bft) NW 315 1,6 C 8,9 C 23,6 km/h (4 Bft) 100 %
03.04.2020 13:20 9,6 C 57 % 1015,0 hPa 0,0 l/m 7,1 km/h (2 Bft) W-NW 292 1,5 C 8,7 C 21,3 km/h (4 Bft) 100 %
03.04.2020 13:10 9,9 C 58 % 1015,0 hPa 0,0 l/m 7,1 km/h (2 Bft) N-NO 22 2,0 C 9,1 C 18,9 km/h (3 Bft) 100 %
03.04.2020 13:00 9,9 C 60 % 1014,9 hPa 0,0 l/m 7,1 km/h (2 Bft) N 360 2,5 C 9,1 C 21,3 km/h (4 Bft) 100 %
_ Min-Zeit 02:50 15:50 13:00 - 23:18 - - 15:50 04:00 23:18 17:55
Minimum _ 1,7 C 45 % 1014,9 hPa - 0,0 km/h (0 Bft) - - -0,5 C 0,6 C 0,0 km/h (0 Bft) 96 %
_ Max-Zeit 12:50 02:10 12:00 13:00 11:10 - - 11:20 12:50 15:40 13:00
Maximum _ 12,6 C 88 % 1025,1 hPa 0,0 l/m 13,9 km/h
W-SW (3 Bft)
- - 3,2 C 12,6 C 30,7 km/h
W-SW (5 Bft)
100 %
Durchschnitt _ 6,7 C 70 % 1019,8 hPa #0,0 l/m 5,7 km/h (1 Bft) S-SW - 1,4 C 6,1 C 13,4 km/h (3 Bft) 99 %